createdAt,value
2022-09-25T00:00:06.824Z,6.32
2022-09-25T00:10:08.027Z,7.10
2022-09-25T00:20:10.145Z,9.05
2022-09-25T00:30:13.163Z,7.38
2022-09-25T00:40:27.747Z,8.98
2022-09-25T00:50:31.861Z,7.35
2022-09-25T01:00:34.254Z,8.20
2022-09-25T01:10:35.742Z,9.25
2022-09-25T01:20:58.327Z,11.00
2022-09-25T01:31:15.033Z,10.32
2022-09-25T01:42:00.290Z,11.27
2022-09-25T01:52:05.568Z,11.38
2022-09-25T02:02:11.885Z,11.10
2022-09-25T02:12:21.464Z,11.75
2022-09-25T02:22:33.020Z,10.20
2022-09-25T02:32:35.485Z,11.57
2022-09-25T02:42:59.093Z,11.27
2022-09-25T02:53:21.804Z,12.55
2022-09-25T03:03:26.149Z,13.10
2022-09-25T03:13:34.223Z,16.08
2022-09-25T03:23:36.066Z,17.02
2022-09-25T03:33:40.563Z,16.17
2022-09-25T03:43:44.224Z,15.60
2022-09-25T03:53:45.823Z,15.05
2022-09-25T04:03:48.948Z,15.77
2022-09-25T04:13:50.562Z,16.05
2022-09-25T04:24:11.987Z,17.45
2022-09-25T04:34:13.925Z,17.77
2022-09-25T04:44:15.485Z,20.60
2022-09-25T04:54:18.084Z,19.88
2022-09-25T05:04:19.527Z,20.02
2022-09-25T05:14:21.167Z,20.67
2022-09-25T05:24:22.925Z,19.30
2022-09-25T05:34:24.443Z,18.98
2022-09-25T05:44:26.620Z,18.35
2022-09-25T05:54:28.586Z,15.30
2022-09-25T06:04:30.066Z,14.80
2022-09-25T06:14:32.122Z,13.43
2022-09-25T06:24:33.769Z,13.85
2022-09-25T06:34:34.962Z,14.40
2022-09-25T06:44:36.527Z,13.27
2022-09-25T06:54:40.575Z,13.02
2022-09-25T07:04:47.266Z,13.88
2022-09-25T07:14:49.188Z,13.68
2022-09-25T07:24:51.410Z,13.13
2022-09-25T07:34:52.970Z,13.00
2022-09-25T07:44:54.729Z,12.93
2022-09-25T07:54:56.382Z,13.45
2022-09-25T08:04:58.067Z,11.43
2022-09-25T08:14:59.950Z,12.82
2022-09-25T08:25:05.843Z,11.70
2022-09-25T08:35:08.129Z,10.63
2022-09-25T08:45:36.348Z,11.10
2022-09-25T08:56:01.189Z,10.17
2022-09-25T09:06:15.983Z,10.32
2022-09-25T09:16:46.840Z,11.35
2022-09-25T09:27:06.507Z,12.00
2022-09-25T09:37:22.105Z,12.13
2022-09-25T09:47:53.469Z,13.10
2022-09-25T09:57:57.170Z,12.85
2022-09-25T10:08:01.532Z,12.55
2022-09-25T10:18:05.244Z,10.98
2022-09-25T10:28:30.128Z,11.40
2022-09-25T10:38:37.249Z,12.48
2022-09-25T10:48:59.569Z,13.17
2022-09-25T10:59:03.885Z,13.65
2022-09-25T11:09:21.792Z,13.05
2022-09-25T11:19:41.024Z,13.50
2022-09-25T11:29:48.690Z,11.68
2022-09-25T11:40:41.248Z,11.63
2022-09-25T11:51:08.127Z,9.93
2022-09-25T12:01:32.917Z,12.32
2022-09-25T12:12:07.270Z,17.15
2022-09-25T12:22:13.068Z,16.48
2022-09-25T12:32:30.843Z,15.88
2022-09-25T12:42:57.709Z,15.50
2022-09-25T12:53:24.550Z,9.38
2022-09-25T13:03:51.948Z,5.75
2022-09-25T13:13:57.110Z,4.65
2022-09-25T13:24:02.008Z,4.07
2022-09-25T13:34:15.789Z,4.80
2022-09-25T13:44:45.373Z,4.25
2022-09-25T13:54:47.106Z,4.18
2022-09-25T14:04:50.342Z,3.70
2022-09-25T14:15:17.414Z,3.05
2022-09-25T14:25:46.753Z,3.53
2022-09-25T14:36:00.906Z,3.75
2022-09-25T14:46:22.579Z,3.70
2022-09-25T14:56:29.646Z,4.88
2022-09-25T15:16:54.605Z,3.90
2022-09-25T15:27:05.589Z,3.78
2022-09-25T15:37:33.307Z,3.33
2022-09-25T15:47:59.768Z,3.47
2022-09-25T15:58:15.689Z,3.30
2022-09-25T16:08:38.264Z,3.35
2022-09-25T16:18:43.009Z,14.00
2022-09-25T16:28:59.909Z,4.90
2022-09-25T16:39:17.310Z,3.78
2022-09-25T16:49:23.207Z,3.63
2022-09-25T16:59:28.084Z,2.97
2022-09-25T17:09:32.881Z,4.13
2022-09-25T17:19:34.364Z,3.50
2022-09-25T17:29:38.309Z,3.55
2022-09-25T17:39:40.264Z,5.13
2022-09-25T17:49:41.585Z,5.32
2022-09-25T17:59:42.947Z,8.50
2022-09-25T18:09:44.507Z,9.40
2022-09-25T18:20:04.409Z,8.38
2022-09-25T18:30:05.786Z,7.15
2022-09-25T18:40:08.129Z,7.50
2022-09-25T18:50:10.548Z,6.78
2022-09-25T19:00:12.489Z,5.28
2022-09-25T19:10:14.707Z,7.60
2022-09-25T19:20:16.126Z,6.70
2022-09-25T19:30:17.983Z,5.85
2022-09-25T19:40:40.038Z,7.07
2022-09-25T19:50:44.425Z,5.97
2022-09-25T20:00:46.028Z,5.55
2022-09-25T20:10:48.026Z,6.47
2022-09-25T20:20:53.970Z,5.60
2022-09-25T20:30:55.828Z,5.78
